Time;durP1;ratioP1;P1;durP2;ratioP2;P2;SDS_P1;SDS_P2;PMS_P1;PMS_P2;Temp;Humidity;BMP_temperature;BMP_pressure;BME280_temperature;BME280_humidity;BME280_pressure;Samples;Min_cycle;Max_cycle;Signal;HPM_P1;HPM_P2
2022/07/27 00:01:43;;;;;;;;;;;20.40;51.10;;;;;;5163065;27;19957;-46
2022/07/27 00:04:09;;;;;;;;;;;20.30;50.60;;;;;;5147444;27;19922;-55
2022/07/27 00:06:35;;;;;;;;;;;20.00;50.10;;;;;;5149201;27;19976;-46
2022/07/27 00:09:01;;;;;;;;;;;20.10;49.80;;;;;;5164153;27;19954;-46
2022/07/27 00:11:26;;;;;;;;;;;20.00;49.50;;;;;;5169132;27;20394;-47
2022/07/27 00:13:52;;;;;;;;;;;20.20;51.80;;;;;;5163808;27;19938;-49
2022/07/27 00:16:18;;;;;;;;;;;21.00;53.10;;;;;;5163761;27;19971;-46
2022/07/27 00:18:44;;;;;;;;;;;21.80;51.70;;;;;;5167576;27;19923;-45
2022/07/27 00:21:09;;;;;;;;;;;21.10;51.30;;;;;;5163162;27;19995;-46
2022/07/27 00:23:35;;;;;;;;;;;20.40;51.40;;;;;;5163902;27;19927;-54
2022/07/27 00:26:01;;;;;;;;;;;20.30;50.90;;;;;;5169323;27;20013;-49
2022/07/27 00:28:27;;;;;;;;;;;20.10;50.40;;;;;;5163722;27;20018;-49
2022/07/27 00:30:53;;;;;;;;;;;20.00;49.70;;;;;;5169057;27;19922;-49
2022/07/27 00:33:18;;;;;;;;;;;19.80;49.90;;;;;;5163708;27;19922;-48
2022/07/27 00:35:44;;;;;;;;;;;20.10;52.10;;;;;;5163067;27;19923;-47
2022/07/27 00:38:10;;;;;;;;;;;20.90;53.50;;;;;;5167657;27;19931;-48
2022/07/27 00:40:36;;;;;;;;;;;21.80;52.00;;;;;;5163179;27;20019;-47
2022/07/27 00:43:01;;;;;;;;;;;21.00;51.70;;;;;;5163553;27;20377;-47
2022/07/27 00:45:27;;;;;;;;;;;20.40;51.60;;;;;;5168962;27;20209;-47
2022/07/27 00:47:53;;;;;;;;;;;20.30;50.40;;;;;;5163305;27;19931;-51
2022/07/27 00:50:19;;;;;;;;;;;19.90;50.60;;;;;;5168951;27;20025;-46
2022/07/27 00:52:45;;;;;;;;;;;19.80;49.70;;;;;;5163379;27;20409;-50
2022/07/27 00:55:10;;;;;;;;;;;19.80;49.50;;;;;;5161825;27;22286;-48
2022/07/27 00:57:36;;;;;;;;;;;19.90;52.30;;;;;;5167893;27;20298;-49
2022/07/27 01:00:03;;;;;;;;;;;20.80;53.50;;;;;;5144739;27;20289;-50
2022/07/27 01:02:28;;;;;;;;;;;21.80;52.10;;;;;;5163428;27;20245;-47
2022/07/27 01:04:54;;;;;;;;;;;21.20;51.60;;;;;;5168767;27;19922;-48
2022/07/27 01:07:20;;;;;;;;;;;20.50;51.50;;;;;;5163103;27;20370;-49
2022/07/27 01:09:58;;;;;;;;;;;20.50;50.50;;;;;;5168343;27;19923;-49
2022/07/27 01:12:25;;;;;;;;;;;20.10;50.50;;;;;;5165582;27;19922;-49
2022/07/27 01:14:50;;;;;;;;;;;19.90;49.80;;;;;;5161737;27;19923;-48
2022/07/27 01:17:16;;;;;;;;;;;19.70;49.80;;;;;;5168335;27;20009;-48
2022/07/27 01:19:42;;;;;;;;;;;20.20;53.00;;;;;;5162881;27;19923;-52
2022/07/27 01:22:08;;;;;;;;;;;21.10;53.30;;;;;;5163078;27;19922;-48
2022/07/27 01:24:34;;;;;;;;;;;21.80;51.60;;;;;;5144514;27;19924;-46
2022/07/27 01:27:00;;;;;;;;;;;20.90;51.80;;;;;;5126378;27;19986;-50
2022/07/27 01:29:26;;;;;;;;;;;20.30;51.30;;;;;;5162752;27;20271;-49
2022/07/27 01:31:52;;;;;;;;;;;20.20;51.00;;;;;;5166386;27;20030;-47
2022/07/27 01:34:18;;;;;;;;;;;19.90;50.80;;;;;;5161764;27;19926;-48
2022/07/27 01:36:44;;;;;;;;;;;20.00;49.80;;;;;;5168127;27;19984;-46
2022/07/27 01:39:11;;;;;;;;;;;19.80;49.50;;;;;;5162914;27;19927;-48
2022/07/27 01:41:37;;;;;;;;;;;20.10;52.80;;;;;;5162773;27;20014;-49
2022/07/27 01:44:03;;;;;;;;;;;21.10;53.40;;;;;;5167779;27;19972;-49
2022/07/27 01:46:28;;;;;;;;;;;21.80;51.80;;;;;;5162513;27;19929;-48
2022/07/27 01:48:54;;;;;;;;;;;20.80;51.80;;;;;;5161792;27;20467;-49
2022/07/27 01:51:20;;;;;;;;;;;20.40;51.30;;;;;;5166236;27;20293;-50
2022/07/27 01:53:46;;;;;;;;;;;20.40;50.10;;;;;;5162098;27;19926;-49
2022/07/27 01:56:11;;;;;;;;;;;20.00;50.00;;;;;;5167895;27;20373;-53
2022/07/27 01:58:37;;;;;;;;;;;19.90;51.40;;;;;;5158618;27;20329;-49
2022/07/27 02:01:04;;;;;;;;;;;20.70;54.10;;;;;;5162229;27;19922;-48
2022/07/27 02:03:30;;;;;;;;;;;21.70;52.40;;;;;;5167474;27;19927;-47
2022/07/27 02:05:55;;;;;;;;;;;21.30;51.50;;;;;;5162407;27;19972;-46
2022/07/27 02:08:21;;;;;;;;;;;20.70;51.40;;;;;;5160526;27;20409;-48
2022/07/27 02:13:31;;;;;;;;;;;20.30;50.40;;;;;;5161918;27;19974;-47
2022/07/27 02:15:57;;;;;;;;;;;20.20;49.80;;;;;;5162179;27;20167;-46
2022/07/27 02:18:23;;;;;;;;;;;20.00;49.50;;;;;;5167489;27;19923;-48
2022/07/27 02:20:49;;;;;;;;;;;20.10;51.60;;;;;;5161859;27;20330;-49
2022/07/27 02:23:14;;;;;;;;;;;20.80;53.90;;;;;;5167295;27;19972;-46
2022/07/27 02:25:40;;;;;;;;;;;21.70;52.60;;;;;;5161014;27;19975;-45
2022/07/27 02:28:06;;;;;;;;;;;21.00;52.10;;;;;;5160352;27;19923;-47
2022/07/27 02:30:32;;;;;;;;;;;20.70;51.40;;;;;;5167054;27;20373;-44
2022/07/27 02:32:57;;;;;;;;;;;20.40;50.90;;;;;;5161936;27;20057;-47
2022/07/27 02:35:23;;;;;;;;;;;20.20;50.40;;;;;;5161455;27;19923;-48
2022/07/27 02:37:49;;;;;;;;;;;20.10;50.10;;;;;;5167166;27;19922;-47
2022/07/27 02:40:16;;;;;;;;;;;20.00;49.80;;;;;;5161571;27;20338;-49
2022/07/27 02:42:42;;;;;;;;;;;19.90;50.10;;;;;;5163139;27;19931;-47
2022/07/27 02:45:08;;;;;;;;;;;20.60;53.60;;;;;;5160135;27;20073;-47
2022/07/27 02:47:34;;;;;;;;;;;21.40;53.30;;;;;;5160819;27;20022;-48
2022/07/27 02:50:00;;;;;;;;;;;21.50;52.00;;;;;;5148485;27;20021;-49
2022/07/27 02:52:26;;;;;;;;;;;20.80;51.90;;;;;;5161719;27;20324;-47
2022/07/27 02:54:52;;;;;;;;;;;20.30;51.30;;;;;;5161586;27;19974;-45
2022/07/27 02:57:17;;;;;;;;;;;20.10;50.80;;;;;;5166704;27;19923;-48
2022/07/27 02:59:43;;;;;;;;;;;20.00;50.00;;;;;;5161454;27;20025;-46
2022/07/27 03:02:09;;;;;;;;;;;19.80;50.00;;;;;;5164912;27;20018;-57
2022/07/27 03:04:35;;;;;;;;;;;20.10;53.90;;;;;;5161870;27;19983;-52
2022/07/27 03:07:00;;;;;;;;;;;21.20;53.80;;;;;;5161006;27;20405;-47
2022/07/27 03:09:26;;;;;;;;;;;21.70;52.20;;;;;;5166730;27;20362;-46
2022/07/27 03:11:52;;;;;;;;;;;20.90;51.70;;;;;;5161469;27;19927;-46
2022/07/27 03:14:18;;;;;;;;;;;20.30;51.80;;;;;;5161602;27;20323;-45
2022/07/27 03:16:44;;;;;;;;;;;20.20;50.40;;;;;;5166838;27;20021;-47
2022/07/27 03:19:10;;;;;;;;;;;20.00;50.10;;;;;;5161355;27;19938;-48
2022/07/27 03:21:36;;;;;;;;;;;19.90;49.90;;;;;;5161260;27;20009;-54
2022/07/27 03:24:02;;;;;;;;;;;19.80;49.90;;;;;;5164542;27;20400;-47
2022/07/27 03:26:29;;;;;;;;;;;20.30;54.00;;;;;;5161185;27;19929;-49
2022/07/27 03:28:56;;;;;;;;;;;21.30;53.60;;;;;;5166751;27;19938;-47
2022/07/27 03:31:21;;;;;;;;;;;21.60;52.10;;;;;;5161260;27;19969;-45
2022/07/27 03:33:47;;;;;;;;;;;20.60;52.20;;;;;;5161130;27;20335;-49
2022/07/27 03:36:13;;;;;;;;;;;20.30;51.70;;;;;;5166464;27;20451;-53
2022/07/27 03:38:39;;;;;;;;;;;20.30;50.50;;;;;;5160933;27;19979;-49
2022/07/27 03:41:05;;;;;;;;;;;20.10;50.10;;;;;;5159253;27;19922;-49
2022/07/27 03:43:31;;;;;;;;;;;19.80;50.30;;;;;;5147436;27;19974;-46
2022/07/27 03:45:57;;;;;;;;;;;20.10;53.60;;;;;;5160907;27;19930;-46
2022/07/27 03:48:23;;;;;;;;;;;21.10;54.00;;;;;;5168920;27;20357;-49
2022/07/27 03:50:49;;;;;;;;;;;21.70;52.40;;;;;;5164540;27;20400;-47
2022/07/27 03:53:16;;;;;;;;;;;20.80;52.10;;;;;;5164035;27;19931;-47
2022/07/27 03:55:42;;;;;;;;;;;20.30;51.80;;;;;;5169966;27;19923;-47
2022/07/27 03:58:08;;;;;;;;;;;20.20;50.90;;;;;;5142950;27;20305;-50
2022/07/27 04:00:34;;;;;;;;;;;20.00;50.40;;;;;;5162920;27;19926;-48
2022/07/27 04:02:59;;;;;;;;;;;19.90;50.20;;;;;;5169583;27;19923;-51
2022/07/27 04:05:25;;;;;;;;;;;20.00;53.10;;;;;;5164442;27;20099;-47
2022/07/27 04:07:51;;;;;;;;;;;21.00;54.20;;;;;;5169928;27;19962;-51
2022/07/27 04:10:17;;;;;;;;;;;21.80;52.50;;;;;;5164144;27;20298;-51
2022/07/27 04:12:43;;;;;;;;;;;20.90;52.20;;;;;;5163795;27;19923;-46
2022/07/27 04:15:09;;;;;;;;;;;20.50;51.30;;;;;;5169357;27;19931;-48
2022/07/27 04:17:34;;;;;;;;;;;20.10;50.90;;;;;;5161967;27;19934;-46
2022/07/27 04:20:00;;;;;;;;;;;20.00;50.40;;;;;;5163364;27;20007;-49
2022/07/27 04:22:26;;;;;;;;;;;19.70;50.50;;;;;;5169294;27;19922;-48
2022/07/27 04:24:52;;;;;;;;;;;20.00;51.60;;;;;;5163992;27;19930;-49
2022/07/27 04:27:18;;;;;;;;;;;20.80;54.20;;;;;;5167868;27;19946;-57
2022/07/27 04:29:43;;;;;;;;;;;21.80;53.10;;;;;;5145506;27;19930;-48
2022/07/27 04:32:09;;;;;;;;;;;21.00;52.30;;;;;;5163651;27;19926;-46
2022/07/27 04:34:35;;;;;;;;;;;20.40;51.70;;;;;;5149507;27;20007;-47
2022/07/27 04:37:01;;;;;;;;;;;20.20;51.30;;;;;;5162358;27;20644;-48
2022/07/27 04:39:27;;;;;;;;;;;20.00;50.70;;;;;;5163636;27;19922;-46
2022/07/27 04:41:52;;;;;;;;;;;19.90;50.20;;;;;;5169248;27;19923;-46
2022/07/27 04:44:18;;;;;;;;;;;19.80;50.00;;;;;;5163585;27;19953;-48
2022/07/27 04:46:44;;;;;;;;;;;20.00;54.10;;;;;;5165457;27;19952;-56
2022/07/27 04:49:09;;;;;;;;;;;20.90;54.60;;;;;;5166884;27;19926;-45
2022/07/27 04:51:39;;;;;;;;;;;21.80;52.60;;;;;;5163385;27;19923;-50
2022/07/27 04:54:05;;;;;;;;;;;20.80;52.40;;;;;;5166927;27;19929;-48
2022/07/27 04:56:31;;;;;;;;;;;20.40;51.90;;;;;;5162402;27;19923;-48
2022/07/27 04:58:57;;;;;;;;;;;20.30;51.00;;;;;;5163248;27;20382;-47
2022/07/27 05:01:24;;;;;;;;;;;19.90;51.10;;;;;;5168787;27;19933;-47
2022/07/27 05:03:50;;;;;;;;;;;19.90;50.30;;;;;;5163236;27;19931;-49
2022/07/27 05:06:16;;;;;;;;;;;20.00;51.30;;;;;;5163077;27;20181;-48
2022/07/27 05:08:42;;;;;;;;;;;20.80;54.70;;;;;;5168586;27;20365;-47
2022/07/27 05:11:07;;;;;;;;;;;21.60;53.70;;;;;;5143682;27;19929;-50
2022/07/27 05:13:36;;;;;;;;;;;21.10;52.50;;;;;;5167055;27;19923;-50
2022/07/27 05:16:02;;;;;;;;;;;20.60;52.10;;;;;;5142996;27;20010;-49
2022/07/27 05:18:28;;;;;;;;;;;20.40;51.30;;;;;;5163187;27;19926;-48
2022/07/27 05:20:54;;;;;;;;;;;20.10;50.90;;;;;;5168602;27;19923;-50
2022/07/27 05:23:19;;;;;;;;;;;20.00;50.50;;;;;;5162556;27;19929;-46
2022/07/27 05:25:45;;;;;;;;;;;20.00;50.20;;;;;;5162965;27;20043;-50
2022/07/27 05:28:11;;;;;;;;;;;20.20;53.70;;;;;;5168044;27;19961;-49
2022/07/27 05:30:37;;;;;;;;;;;21.00;54.70;;;;;;5161505;27;20792;-48
2022/07/27 05:33:03;;;;;;;;;;;21.80;53.30;;;;;;5167400;27;20010;-53
2022/07/27 05:35:28;;;;;;;;;;;20.90;52.70;;;;;;5163048;27;20356;-45
2022/07/27 05:37:54;;;;;;;;;;;20.50;51.90;;;;;;5162767;27;19923;-46
2022/07/27 05:40:20;;;;;;;;;;;20.20;51.50;;;;;;5168295;27;19927;-48
2022/07/27 05:42:46;;;;;;;;;;;20.00;50.90;;;;;;5162312;27;20389;-46
2022/07/27 05:45:12;;;;;;;;;;;19.80;50.50;;;;;;5162492;27;20254;-47
2022/07/27 05:47:38;;;;;;;;;;;20.30;54.50;;;;;;5149014;27;19927;-48
2022/07/27 05:50:04;;;;;;;;;;;21.10;55.00;;;;;;5160762;27;20271;-45
2022/07/27 05:52:30;;;;;;;;;;;21.80;53.00;;;;;;5165258;27;19923;-57
2022/07/27 05:54:56;;;;;;;;;;;20.90;52.70;;;;;;5165292;27;20366;-46
2022/07/27 05:57:21;;;;;;;;;;;20.40;51.90;;;;;;5162688;27;20290;-47
2022/07/27 05:59:47;;;;;;;;;;;20.10;50.90;;;;;;5167722;27;19931;-46
2022/07/27 06:02:13;;;;;;;;;;;20.00;50.60;;;;;;5162180;27;19930;-47
2022/07/27 06:04:41;;;;;;;;;;;19.80;50.40;;;;;;5162111;27;19923;-50
2022/07/27 06:10:08;;;;;;;;;;;20.90;55.20;;;;;;5075479;28;19931;-48
2022/07/27 06:12:40;;;;;;;;;;;21.80;53.10;;;;;;5144446;27;19983;-47
2022/07/27 06:15:06;;;;;;;;;;;20.90;52.60;;;;;;5167986;27;20266;-50
2022/07/27 06:17:32;;;;;;;;;;;20.70;51.60;;;;;;5141540;27;19927;-47
2022/07/27 06:19:58;;;;;;;;;;;20.20;51.20;;;;;;5161873;27;20359;-46
2022/07/27 06:22:24;;;;;;;;;;;20.00;50.80;;;;;;5167431;27;19930;-47
2022/07/27 06:24:49;;;;;;;;;;;19.70;50.80;;;;;;5160882;27;19934;-49
2022/07/27 06:27:15;;;;;;;;;;;19.70;50.30;;;;;;5165696;27;19926;-56
2022/07/27 06:29:41;;;;;;;;;;;20.30;54.30;;;;;;5162281;27;19925;-46
2022/07/27 06:32:07;;;;;;;;;;;21.20;55.00;;;;;;5162147;27;19923;-46
2022/07/27 06:34:34;;;;;;;;;;;21.70;53.20;;;;;;5167688;27;19923;-50
2022/07/27 06:36:59;;;;;;;;;;;20.80;52.40;;;;;;5161846;27;19927;-49
2022/07/27 06:39:26;;;;;;;;;;;20.30;52.00;;;;;;5161427;27;19930;-48
2022/07/27 06:41:51;;;;;;;;;;;20.00;51.40;;;;;;5167119;27;19930;-49
2022/07/27 06:44:17;;;;;;;;;;;19.80;50.90;;;;;;5141354;27;20338;-49
2022/07/27 06:46:43;;;;;;;;;;;19.80;50.30;;;;;;5162980;27;19927;-52
2022/07/27 06:49:09;;;;;;;;;;;19.90;51.80;;;;;;5164979;27;19923;-49
2022/07/27 06:51:35;;;;;;;;;;;20.60;55.50;;;;;;5161840;27;19929;-45
2022/07/27 06:54:00;;;;;;;;;;;21.50;54.30;;;;;;5167132;27;20021;-51
2022/07/27 06:56:26;;;;;;;;;;;21.50;52.90;;;;;;5161386;27;20013;-44
2022/07/27 06:58:52;;;;;;;;;;;20.80;52.30;;;;;;5161332;27;20386;-46
2022/07/27 07:01:18;;;;;;;;;;;20.50;51.60;;;;;;5166060;27;19927;-47
2022/07/27 07:03:43;;;;;;;;;;;20.00;51.30;;;;;;5159828;27;19941;-45
2022/07/27 07:06:09;;;;;;;;;;;19.90;50.90;;;;;;5161431;27;19983;-52
2022/07/27 07:08:35;;;;;;;;;;;19.90;49.90;;;;;;5166539;27;20029;-47
2022/07/27 07:11:01;;;;;;;;;;;20.00;52.00;;;;;;5161755;27;20327;-47
2022/07/27 07:13:26;;;;;;;;;;;20.70;55.40;;;;;;5166999;27;19930;-53
2022/07/27 07:15:52;;;;;;;;;;;21.50;54.50;;;;;;5161372;27;20018;-47
2022/07/27 07:18:18;;;;;;;;;;;21.30;52.80;;;;;;5161078;27;20294;-47
2022/07/27 07:20:44;;;;;;;;;;;20.70;52.20;;;;;;5165201;27;19926;-47
2022/07/27 07:23:10;;;;;;;;;;;20.40;51.50;;;;;;5143837;27;19923;-50
2022/07/27 07:25:36;;;;;;;;;;;20.10;51.00;;;;;;5164544;27;19922;-50
2022/07/27 07:28:01;;;;;;;;;;;20.00;50.50;;;;;;5170548;27;19966;-47
2022/07/27 07:30:27;;;;;;;;;;;19.90;50.30;;;;;;5165045;27;19923;-49
2022/07/27 07:32:53;;;;;;;;;;;20.50;54.80;;;;;;5170013;27;20405;-46
2022/07/27 07:35:19;;;;;;;;;;;21.30;54.80;;;;;;5164639;27;19953;-47
2022/07/27 07:37:45;;;;;;;;;;;21.40;53.20;;;;;;5164016;27;19923;-50
2022/07/27 07:40:10;;;;;;;;;;;20.70;52.40;;;;;;5168378;27;19930;-50
2022/07/27 07:42:49;;;;;;;;;;;20.30;51.90;;;;;;5164386;27;20293;-48
2022/07/27 07:45:15;;;;;;;;;;;20.20;50.90;;;;;;5164638;27;20009;-48
2022/07/27 07:47:41;;;;;;;;;;;19.90;50.50;;;;;;5170196;27;19930;-46
2022/07/27 07:50:07;;;;;;;;;;;19.80;50.10;;;;;;5164530;27;19922;-47
2022/07/27 07:52:32;;;;;;;;;;;20.10;54.40;;;;;;5166188;27;20009;-54
2022/07/27 07:54:58;;;;;;;;;;;21.00;55.30;;;;;;5149593;27;19927;-45
2022/07/27 07:57:24;;;;;;;;;;;21.80;53.80;;;;;;5162741;27;20401;-47
2022/07/27 07:59:50;;;;;;;;;;;21.00;52.90;;;;;;5149038;27;19930;-48
2022/07/27 08:02:15;;;;;;;;;;;20.30;52.60;;;;;;5164244;27;19969;-46
2022/07/27 08:04:41;;;;;;;;;;;20.20;51.40;;;;;;5164494;27;19923;-45
2022/07/27 08:07:08;;;;;;;;;;;20.00;51.40;;;;;;5170032;27;19934;-49
2022/07/27 08:09:34;;;;;;;;;;;20.00;50.60;;;;;;5164038;27;20027;-49
2022/07/27 08:12:00;;;;;;;;;;;19.80;50.20;;;;;;5164133;27;19923;-48
2022/07/27 08:14:25;;;;;;;;;;;20.00;52.80;;;;;;5169066;27;19931;-52
2022/07/27 08:16:51;;;;;;;;;;;20.70;55.70;;;;;;5162527;27;19923;-47
2022/07/27 08:19:17;;;;;;;;;;;21.60;54.50;;;;;;5169109;27;19923;-50
2022/07/27 08:21:43;;;;;;;;;;;21.30;53.10;;;;;;5145261;27;20424;-47
2022/07/27 08:24:09;;;;;;;;;;;20.60;52.70;;;;;;5164027;27;19931;-47
2022/07/27 08:26:35;;;;;;;;;;;20.20;52.00;;;;;;5169221;27;19929;-46
2022/07/27 08:29:01;;;;;;;;;;;20.00;51.10;;;;;;5144933;27;20289;-47
2022/07/27 08:31:26;;;;;;;;;;;20.00;50.60;;;;;;5163665;27;19927;-46
2022/07/27 08:33:52;;;;;;;;;;;20.20;53.10;;;;;;5167320;27;20084;-47
2022/07/27 08:36:21;;;;;;;;;;;21.00;55.60;;;;;;5162552;27;19923;-47
2022/07/27 08:38:47;;;;;;;;;;;21.80;54.00;;;;;;5169172;27;19923;-46
2022/07/27 08:41:13;;;;;;;;;;;20.90;53.30;;;;;;5163747;27;20370;-49
2022/07/27 08:43:39;;;;;;;;;;;20.70;52.20;;;;;;5163645;27;19991;-46
2022/07/27 08:46:05;;;;;;;;;;;20.30;51.60;;;;;;5150245;27;19979;-48
2022/07/27 08:48:30;;;;;;;;;;;19.90;51.80;;;;;;5163353;27;19923;-49
2022/07/27 08:50:56;;;;;;;;;;;19.90;50.90;;;;;;5163075;27;19930;-47
2022/07/27 08:53:22;;;;;;;;;;;19.80;50.50;;;;;;5167205;27;19952;-51
2022/07/27 08:55:48;;;;;;;;;;;20.20;54.60;;;;;;5162930;27;19949;-53
2022/07/27 08:58:14;;;;;;;;;;;21.00;55.80;;;;;;5168201;27;20285;-55
2022/07/27 09:00:40;;;;;;;;;;;21.90;54.10;;;;;;5164646;27;19926;-46
2022/07/27 09:03:06;;;;;;;;;;;21.20;53.10;;;;;;5163357;27;19927;-48
2022/07/27 09:05:32;;;;;;;;;;;20.50;52.60;;;;;;5149587;27;20392;-48
2022/07/27 09:08:11;;;;;;;;;;;20.10;52.00;;;;;;5144347;27;19978;-46
2022/07/27 09:10:37;;;;;;;;;;;20.20;50.90;;;;;;5161737;27;19974;-47
2022/07/27 09:13:19;;;;;;;;;;;20.20;50.00;;;;;;5167073;27;19927;-49
2022/07/27 09:15:45;;;;;;;;;;;20.00;54.10;;;;;;5162759;27;19931;-47
2022/07/27 09:18:18;;;;;;;;;;;21.00;55.70;;;;;;5163065;27;19922;-48
2022/07/27 09:20:44;;;;;;;;;;;21.80;53.90;;;;;;5168452;27;19979;-46
2022/07/27 09:23:10;;;;;;;;;;;21.00;53.30;;;;;;5162542;27;19923;-49
2022/07/27 09:25:37;;;;;;;;;;;20.40;52.40;;;;;;5162897;27;20637;-48
2022/07/27 09:28:02;;;;;;;;;;;20.30;51.70;;;;;;5167737;27;19929;-51
2022/07/27 09:30:28;;;;;;;;;;;20.00;51.20;;;;;;5161119;27;19923;-51
2022/07/27 09:32:55;;;;;;;;;;;19.90;50.80;;;;;;5167775;27;19927;-51
2022/07/27 09:35:25;;;;;;;;;;;19.80;50.30;;;;;;5162806;27;20330;-49
2022/07/27 09:37:51;;;;;;;;;;;19.90;53.90;;;;;;5142133;27;19923;-52
2022/07/27 09:40:20;;;;;;;;;;;20.90;55.70;;;;;;5149736;27;19926;-49
2022/07/27 09:42:46;;;;;;;;;;;21.70;54.70;;;;;;5162415;27;19937;-47
2022/07/27 09:45:31;;;;;;;;;;;21.10;53.60;;;;;;5161525;27;19922;-46
2022/07/27 09:48:07;;;;;;;;;;;20.70;52.70;;;;;;5166455;27;20033;-49
2022/07/27 09:50:32;;;;;;;;;;;20.30;51.90;;;;;;5161729;27;19937;-47
2022/07/27 09:53:11;;;;;;;;;;;20.10;51.50;;;;;;5162469;27;19923;-47
2022/07/27 09:55:37;;;;;;;;;;;19.90;51.00;;;;;;5147354;27;20026;-51
2022/07/27 09:58:02;;;;;;;;;;;19.90;50.40;;;;;;5162366;27;19931;-50
2022/07/27 10:00:28;;;;;;;;;;;20.10;54.00;;;;;;5162127;27;20393;-48
2022/07/27 10:02:54;;;;;;;;;;;20.90;55.80;;;;;;5129939;27;21334;-47
2022/07/27 10:05:23;;;;;;;;;;;21.80;54.70;;;;;;5142019;27;19923;-51
2022/07/27 10:07:49;;;;;;;;;;;21.10;53.40;;;;;;5166042;27;19930;-52
2022/07/27 10:10:14;;;;;;;;;;;20.50;52.70;;;;;;5161704;27;20388;-46
2022/07/27 10:12:43;;;;;;;;;;;20.30;51.70;;;;;;5162244;27;19958;-46
2022/07/27 10:15:12;;;;;;;;;;;20.10;51.40;;;;;;5167954;27;19971;-46
2022/07/27 10:17:38;;;;;;;;;;;20.00;50.70;;;;;;5162163;27;19926;-49
2022/07/27 10:20:07;;;;;;;;;;;19.90;50.60;;;;;;5142318;27;19927;-46
2022/07/27 10:22:49;;;;;;;;;;;20.10;54.80;;;;;;5167078;27;20033;-52
2022/07/27 10:25:15;;;;;;;;;;;21.00;55.90;;;;;;5160077;27;20093;-45
2022/07/27 10:27:40;;;;;;;;;;;21.80;54.30;;;;;;5161222;27;20066;-50
2022/07/27 10:30:06;;;;;;;;;;;20.80;53.50;;;;;;5167118;27;20508;-49
2022/07/27 10:32:32;;;;;;;;;;;20.60;52.60;;;;;;5161891;27;19922;-50
2022/07/27 10:34:58;;;;;;;;;;;20.10;52.40;;;;;;5167347;27;20497;-53
2022/07/27 10:37:33;;;;;;;;;;;20.10;51.70;;;;;;5162016;27;20400;-45
2022/07/27 10:42:45;;;;;;;;;;;19.90;51.10;;;;;;5161611;27;19933;-53
2022/07/27 10:45:11;;;;;;;;;;;20.10;54.00;;;;;;5161570;27;20296;-49
2022/07/27 10:47:47;;;;;;;;;;;21.00;55.90;;;;;;5161383;27;20037;-46
2022/07/27 10:50:16;;;;;;;;;;;21.80;54.80;;;;;;5167310;27;19926;-51
2022/07/27 10:52:42;;;;;;;;;;;21.00;53.40;;;;;;5161723;27;19922;-47
2022/07/27 10:55:39;;;;;;;;;;;20.60;52.70;;;;;;5161599;27;19931;-48
2022/07/27 10:58:13;;;;;;;;;;;20.40;51.80;;;;;;5170907;27;19923;-46
2022/07/27 11:00:45;;;;;;;;;;;20.30;51.20;;;;;;5164847;27;19978;-49
2022/07/27 11:03:18;;;;;;;;;;;20.10;50.80;;;;;;5163873;27;19923;-52
2022/07/27 11:05:52;;;;;;;;;;;20.10;50.60;;;;;;5170434;27;19930;-49
2022/07/27 11:08:23;;;;;;;;;;;19.80;50.50;;;;;;5164488;27;21281;-46
2022/07/27 11:10:48;;;;;;;;;;;20.20;53.00;;;;;;5165434;27;19922;-47
2022/07/27 11:13:20;;;;;;;;;;;21.00;55.50;;;;;;5170430;27;20388;-46
2022/07/27 11:15:51;;;;;;;;;;;21.80;54.60;;;;;;5165142;27;19922;-47
2022/07/27 11:18:17;;;;;;;;;;;21.50;53.30;;;;;;5145825;27;20017;-48
2022/07/27 11:20:42;;;;;;;;;;;21.00;52.10;;;;;;5168579;27;19971;-50
2022/07/27 11:23:18;;;;;;;;;;;20.60;51.80;;;;;;5128687;27;20447;-46
2022/07/27 11:25:59;;;;;;;;;;;20.30;51.80;;;;;;5128997;27;20215;-46
2022/07/27 11:28:32;;;;;;;;;;;20.10;51.30;;;;;;5170459;27;20312;-49
2022/07/27 11:30:58;;;;;;;;;;;20.10;50.70;;;;;;5164641;27;19930;-46
2022/07/27 11:33:23;;;;;;;;;;;20.10;50.10;;;;;;5164512;27;20451;-49
2022/07/27 11:35:51;;;;;;;;;;;20.50;54.60;;;;;;5169933;27;19927;-47
2022/07/27 11:38:17;;;;;;;;;;;21.30;55.00;;;;;;5163081;27;19947;-46
2022/07/27 11:40:46;;;;;;;;;;;21.60;53.60;;;;;;5150593;27;19931;-48
2022/07/27 11:43:12;;;;;;;;;;;20.70;52.80;;;;;;5146008;27;21962;-46
2022/07/27 11:45:40;;;;;;;;;;;20.30;52.20;;;;;;5164500;27;20434;-50
2022/07/27 11:48:09;;;;;;;;;;;20.20;51.30;;;;;;5169999;27;20088;-50
2022/07/27 11:50:35;;;;;;;;;;;20.10;51.00;;;;;;5164266;27;19940;-49
2022/07/27 11:53:01;;;;;;;;;;;20.10;50.10;;;;;;5164269;27;19923;-49
2022/07/27 11:55:26;;;;;;;;;;;19.80;50.50;;;;;;5149467;27;19931;-52
2022/07/27 11:57:52;;;;;;;;;;;20.00;52.60;;;;;;5163008;27;20282;-50
2022/07/27 12:00:18;;;;;;;;;;;20.80;54.90;;;;;;5146612;27;20334;-56
2022/07/27 12:02:48;;;;;;;;;;;21.80;53.60;;;;;;5168805;27;20021;-50
2022/07/27 12:05:13;;;;;;;;;;;21.20;52.70;;;;;;5164481;27;20297;-51
2022/07/27 12:07:40;;;;;;;;;;;20.60;52.30;;;;;;5168696;27;19923;-47
2022/07/27 12:10:06;;;;;;;;;;;20.50;51.50;;;;;;5163845;27;19929;-49
2022/07/27 12:12:32;;;;;;;;;;;20.40;50.90;;;;;;5163528;27;19969;-46
2022/07/27 12:15:00;;;;;;;;;;;20.10;50.90;;;;;;5167894;27;20329;-46
2022/07/27 12:17:27;;;;;;;;;;;20.00;50.60;;;;;;5163053;27;19923;-47
2022/07/27 12:19:57;;;;;;;;;;;19.90;50.20;;;;;;5145419;27;20485;-49
2022/07/27 12:22:24;;;;;;;;;;;20.40;54.00;;;;;;5169664;27;19926;-47
2022/07/27 12:24:50;;;;;;;;;;;21.30;54.40;;;;;;5163993;27;20395;-46
2022/07/27 12:27:15;;;;;;;;;;;21.50;52.80;;;;;;5168789;27;19973;-55
2022/07/27 12:29:53;;;;;;;;;;;20.80;52.40;;;;;;5164649;27;19923;-48
2022/07/27 12:32:19;;;;;;;;;;;20.60;51.70;;;;;;5144006;27;19977;-50
2022/07/27 12:34:45;;;;;;;;;;;20.40;50.70;;;;;;5167871;27;20355;-48
2022/07/27 12:37:11;;;;;;;;;;;20.00;50.80;;;;;;5163613;27;19930;-47
2022/07/27 12:39:36;;;;;;;;;;;20.10;50.00;;;;;;5163567;27;20369;-44
2022/07/27 12:42:03;;;;;;;;;;;20.00;49.60;;;;;;5169075;27;19922;-49
2022/07/27 12:44:33;;;;;;;;;;;20.00;49.70;;;;;;5163603;27;20034;-46
2022/07/27 12:47:39;;;;;;;;;;;19.90;49.50;;;;;;5163690;27;19923;-46
2022/07/27 12:50:03;;;;;;;;;;;20.60;53.70;;;;;;5151434;27;19955;-50
2022/07/27 12:52:29;;;;;;;;;;;21.70;53.00;;;;;;5161518;27;19923;-51
2022/07/27 12:54:55;;;;;;;;;;;21.30;52.10;;;;;;5163088;27;20354;-46
2022/07/27 12:57:21;;;;;;;;;;;20.80;51.60;;;;;;5169002;27;19929;-48
2022/07/27 12:59:47;;;;;;;;;;;20.40;51.30;;;;;;5163605;27;20013;-47
2022/07/27 13:02:13;;;;;;;;;;;20.30;50.80;;;;;;5165562;27;19926;-55
2022/07/27 13:04:38;;;;;;;;;;;20.20;50.50;;;;;;5166840;27;19948;-46
2022/07/27 13:07:04;;;;;;;;;;;20.00;50.50;;;;;;5163361;27;19926;-47
2022/07/27 13:09:30;;;;;;;;;;;20.10;49.70;;;;;;5167244;27;20378;-48
2022/07/27 13:11:56;;;;;;;;;;;19.90;49.90;;;;;;5162084;27;20281;-48
2022/07/27 13:14:21;;;;;;;;;;;20.50;53.30;;;;;;5163039;27;20008;-47
2022/07/27 13:16:47;;;;;;;;;;;21.40;53.30;;;;;;5168643;27;20378;-49
2022/07/27 13:19:13;;;;;;;;;;;21.80;51.80;;;;;;5163308;27;19926;-48
2022/07/27 13:21:39;;;;;;;;;;;20.80;52.20;;;;;;5162870;27;19927;-53
2022/07/27 13:24:08;;;;;;;;;;;20.50;51.30;;;;;;5168111;27;19927;-50
2022/07/27 13:26:35;;;;;;;;;;;20.30;50.70;;;;;;5162533;27;19923;-49
2022/07/27 13:29:01;;;;;;;;;;;20.20;50.40;;;;;;5166271;27;19928;-49
2022/07/27 13:31:26;;;;;;;;;;;20.20;49.80;;;;;;5162174;27;19979;-50
2022/07/27 13:33:52;;;;;;;;;;;19.90;49.90;;;;;;5144054;27;19923;-47
2022/07/27 13:36:18;;;;;;;;;;;20.00;51.90;;;;;;5168199;27;19930;-54
2022/07/27 13:38:44;;;;;;;;;;;20.90;53.70;;;;;;5162764;27;20297;-47
2022/07/27 13:41:09;;;;;;;;;;;21.80;52.20;;;;;;5162243;27;20009;-45
2022/07/27 13:43:35;;;;;;;;;;;21.30;51.50;;;;;;5168113;27;20437;-46
2022/07/27 13:46:02;;;;;;;;;;;20.70;51.20;;;;;;5161314;27;19927;-46
2022/07/27 13:48:28;;;;;;;;;;;20.20;51.20;;;;;;5147725;27;19923;-47
2022/07/27 13:50:53;;;;;;;;;;;20.30;50.40;;;;;;5162327;27;19934;-46
2022/07/27 13:53:19;;;;;;;;;;;20.20;50.20;;;;;;5142481;27;19923;-47
2022/07/27 13:55:45;;;;;;;;;;;19.90;50.00;;;;;;5168053;27;20369;-46
2022/07/27 13:58:11;;;;;;;;;;;19.90;49.80;;;;;;5162131;27;20366;-51
2022/07/27 14:00:37;;;;;;;;;;;20.10;51.10;;;;;;5162080;27;20021;-51
2022/07/27 14:03:02;;;;;;;;;;;20.80;53.70;;;;;;5167670;27;20422;-54
2022/07/27 14:05:28;;;;;;;;;;;21.80;52.20;;;;;;5160186;27;20384;-47
2022/07/27 14:07:54;;;;;;;;;;;21.30;51.30;;;;;;5166249;27;20264;-54
2022/07/27 14:10:38;;;;;;;;;;;20.90;50.90;;;;;;5162975;27;19930;-50
2022/07/27 14:13:05;;;;;;;;;;;20.40;50.80;;;;;;5162474;27;20033;-49
2022/07/27 14:15:30;;;;;;;;;;;20.10;50.50;;;;;;5148949;27;19929;-46
2022/07/27 14:17:56;;;;;;;;;;;20.10;50.00;;;;;;5162040;27;19931;-48
2022/07/27 14:20:22;;;;;;;;;;;20.10;49.50;;;;;;5162133;27;20404;-47
2022/07/27 14:22:48;;;;;;;;;;;20.00;51.00;;;;;;5166021;27;20021;-49